createdAt,value
2022-07-29T00:00:36.050Z,20.51
2022-07-29T00:01:36.617Z,20.40
2022-07-29T00:02:36.120Z,20.48
2022-07-29T00:03:36.124Z,20.42
2022-07-29T00:04:36.026Z,20.56
2022-07-29T00:05:36.642Z,20.38
2022-07-29T00:06:35.936Z,20.44
2022-07-29T00:07:35.990Z,20.35
2022-07-29T00:08:35.926Z,20.42
2022-07-29T00:09:43.056Z,20.42
2022-07-29T00:10:36.863Z,20.61
2022-07-29T00:11:35.921Z,20.64
2022-07-29T00:12:35.830Z,20.57
2022-07-29T00:13:35.927Z,20.66
2022-07-29T00:14:35.809Z,20.57
2022-07-29T00:15:35.842Z,20.50
2022-07-29T00:16:35.900Z,20.44
2022-07-29T00:17:35.817Z,20.48
2022-07-29T00:18:35.788Z,20.38
2022-07-29T00:19:35.796Z,20.33
2022-07-29T00:20:35.681Z,20.38
2022-07-29T00:21:35.744Z,20.33
2022-07-29T00:22:35.665Z,20.33
2022-07-29T00:23:36.919Z,20.30
2022-07-29T00:24:35.636Z,20.35
2022-07-29T00:25:35.671Z,20.48
2022-07-29T00:26:35.585Z,20.44
2022-07-29T00:27:35.633Z,20.37
2022-07-29T00:28:35.558Z,20.35
2022-07-29T00:29:35.767Z,20.26
2022-07-29T00:30:35.494Z,20.31
2022-07-29T00:31:35.603Z,20.26
2022-07-29T00:32:35.494Z,20.20
2022-07-29T00:33:35.538Z,20.27
2022-07-29T00:34:35.473Z,20.19
2022-07-29T00:35:35.525Z,20.19
2022-07-29T00:36:35.410Z,20.19
2022-07-29T00:37:36.139Z,20.19
2022-07-29T00:38:35.372Z,20.23
2022-07-29T00:39:35.449Z,20.44
2022-07-29T00:40:35.336Z,20.48
2022-07-29T00:41:35.450Z,20.53
2022-07-29T00:42:35.318Z,20.40
2022-07-29T00:43:35.366Z,20.41
2022-07-29T00:44:35.277Z,20.38
2022-07-29T00:45:35.358Z,20.42
2022-07-29T00:46:35.266Z,20.40
2022-07-29T00:47:35.271Z,20.40
2022-07-29T00:48:35.198Z,20.35
2022-07-29T00:49:35.250Z,20.38
2022-07-29T00:50:35.186Z,20.44
2022-07-29T00:51:35.202Z,20.51
2022-07-29T00:52:35.128Z,20.42
2022-07-29T00:53:35.168Z,20.54
2022-07-29T00:54:35.102Z,20.60
2022-07-29T00:55:36.203Z,20.69
2022-07-29T00:56:35.062Z,20.64
2022-07-29T00:57:35.643Z,20.64
2022-07-29T00:58:35.011Z,20.61
2022-07-29T00:59:35.559Z,20.51
2022-07-29T01:00:35.039Z,20.56
2022-07-29T01:01:35.085Z,20.46
2022-07-29T01:02:35.042Z,20.42
2022-07-29T01:03:35.011Z,20.46
2022-07-29T01:04:34.922Z,20.56
2022-07-29T01:05:50.096Z,20.41
2022-07-29T01:06:35.912Z,20.31
2022-07-29T01:07:35.646Z,20.27
2022-07-29T01:08:34.845Z,20.17
2022-07-29T01:09:46.294Z,20.26
2022-07-29T01:10:35.787Z,20.25
2022-07-29T01:11:34.881Z,20.27
2022-07-29T01:12:34.765Z,20.27
2022-07-29T01:13:35.650Z,20.42
2022-07-29T01:14:34.722Z,20.33
2022-07-29T01:15:34.778Z,20.27
2022-07-29T01:16:34.761Z,20.31
2022-07-29T01:17:34.774Z,20.44
2022-07-29T01:18:34.665Z,20.41
2022-07-29T01:19:34.698Z,20.30
2022-07-29T01:20:34.619Z,20.25
2022-07-29T01:21:34.733Z,20.23
2022-07-29T01:22:34.578Z,20.27
2022-07-29T01:23:34.631Z,20.20
2022-07-29T01:24:34.567Z,20.23
2022-07-29T01:25:34.590Z,20.35
2022-07-29T01:26:34.620Z,20.37
2022-07-29T01:27:34.597Z,20.35
2022-07-29T01:28:34.460Z,20.38
2022-07-29T01:29:39.001Z,20.58
2022-07-29T01:30:35.442Z,20.54
2022-07-29T01:31:37.144Z,20.42
2022-07-29T01:32:35.446Z,20.53
2022-07-29T01:33:34.473Z,20.60
2022-07-29T01:34:34.441Z,20.58
2022-07-29T01:35:34.468Z,20.56
2022-07-29T01:36:34.429Z,20.48
2022-07-29T01:37:34.412Z,20.50
2022-07-29T01:38:34.379Z,20.53
2022-07-29T01:39:34.354Z,20.41
2022-07-29T01:40:34.331Z,20.61
2022-07-29T01:41:35.153Z,20.60
2022-07-29T01:42:34.243Z,20.50
2022-07-29T01:43:35.171Z,20.54
2022-07-29T01:44:34.200Z,20.30
2022-07-29T01:45:34.239Z,20.20
2022-07-29T01:46:34.321Z,20.25
2022-07-29T01:47:35.733Z,20.25
2022-07-29T01:48:34.125Z,20.25
2022-07-29T01:49:35.169Z,20.16
2022-07-29T01:50:34.098Z,20.08
2022-07-29T01:51:34.121Z,20.15
2022-07-29T01:52:34.169Z,20.01
2022-07-29T01:53:36.285Z,19.89
2022-07-29T01:54:34.001Z,19.97
2022-07-29T01:55:34.506Z,19.87
2022-07-29T01:56:33.973Z,19.80
2022-07-29T01:57:34.072Z,19.67
2022-07-29T01:58:34.024Z,19.45
2022-07-29T01:59:33.977Z,19.15
2022-07-29T02:00:33.974Z,19.16
2022-07-29T02:01:34.075Z,19.10
2022-07-29T02:02:33.973Z,19.06
2022-07-29T02:03:33.936Z,19.01
2022-07-29T02:04:33.964Z,19.02
2022-07-29T02:05:33.870Z,18.96
2022-07-29T02:06:33.858Z,18.86
2022-07-29T02:07:33.828Z,18.79
2022-07-29T02:08:33.829Z,18.69
2022-07-29T02:09:33.819Z,18.72
2022-07-29T02:10:34.668Z,18.74
2022-07-29T02:11:33.818Z,18.76
2022-07-29T02:12:33.742Z,18.86
2022-07-29T02:13:33.760Z,18.86
2022-07-29T02:14:33.696Z,18.83
2022-07-29T02:15:33.686Z,18.75
2022-07-29T02:16:33.705Z,18.68
2022-07-29T02:17:33.649Z,18.59
2022-07-29T02:18:33.653Z,18.56
2022-07-29T02:19:33.649Z,18.57
2022-07-29T02:20:33.669Z,18.66
2022-07-29T02:21:33.576Z,18.66
2022-07-29T02:22:33.558Z,18.65
2022-07-29T02:23:51.201Z,18.65
2022-07-29T02:24:34.496Z,18.75
2022-07-29T02:25:37.648Z,18.66
2022-07-29T02:26:34.435Z,18.71
2022-07-29T02:27:33.498Z,18.72
2022-07-29T02:28:34.176Z,18.76
2022-07-29T02:29:33.527Z,18.83
2022-07-29T02:30:33.461Z,18.76
2022-07-29T02:31:33.473Z,18.74
2022-07-29T02:32:34.170Z,18.69
2022-07-29T02:33:33.358Z,18.69
2022-07-29T02:34:33.351Z,18.71
2022-07-29T02:35:34.900Z,18.62
2022-07-29T02:36:33.253Z,18.62
2022-07-29T02:37:33.295Z,18.62
2022-07-29T02:38:34.188Z,18.66
2022-07-29T02:39:34.189Z,18.71
2022-07-29T02:40:33.272Z,18.62
2022-07-29T02:41:33.216Z,18.44
2022-07-29T02:42:33.209Z,18.60
2022-07-29T02:43:33.213Z,18.51
2022-07-29T02:44:34.829Z,18.49
2022-07-29T02:45:33.214Z,18.57
2022-07-29T02:46:33.765Z,18.50
2022-07-29T02:47:42.087Z,18.53
2022-07-29T02:48:34.036Z,18.42
2022-07-29T02:49:33.091Z,18.54
2022-07-29T02:50:33.089Z,18.39
2022-07-29T02:51:44.285Z,18.42
2022-07-29T02:52:33.984Z,18.35
2022-07-29T02:53:33.024Z,18.32
2022-07-29T02:54:33.029Z,18.34
2022-07-29T02:55:33.695Z,18.44
2022-07-29T02:56:33.078Z,18.28
2022-07-29T02:57:32.936Z,18.29
2022-07-29T02:58:32.923Z,18.36
2022-07-29T02:59:32.902Z,18.29
2022-07-29T03:00:33.682Z,18.32
2022-07-29T03:01:32.951Z,18.35
2022-07-29T03:02:32.849Z,18.36
2022-07-29T03:03:32.859Z,18.46
2022-07-29T03:04:32.864Z,18.41
2022-07-29T03:05:32.852Z,18.46
2022-07-29T03:06:38.431Z,18.42
2022-07-29T03:07:33.817Z,18.44
2022-07-29T03:08:32.735Z,18.49
2022-07-29T03:09:32.732Z,18.60
2022-07-29T03:10:32.712Z,18.56
2022-07-29T03:11:42.485Z,18.53
2022-07-29T03:12:33.595Z,18.42
2022-07-29T03:13:32.657Z,18.26
2022-07-29T03:14:32.697Z,18.34
2022-07-29T03:15:32.633Z,18.28
2022-07-29T03:16:32.713Z,18.28
2022-07-29T03:17:32.574Z,18.42
2022-07-29T03:18:32.572Z,18.46
2022-07-29T03:19:32.551Z,18.42
2022-07-29T03:20:32.519Z,18.44
2022-07-29T03:21:32.579Z,18.53
2022-07-29T03:22:32.501Z,18.49
2022-07-29T03:23:35.307Z,18.46
2022-07-29T03:24:32.408Z,18.42
2022-07-29T03:25:32.421Z,18.46
2022-07-29T03:26:32.461Z,18.42
2022-07-29T03:27:32.394Z,18.53
2022-07-29T03:28:32.376Z,18.56
2022-07-29T03:29:33.723Z,18.59
2022-07-29T03:30:32.374Z,18.54
2022-07-29T03:31:32.479Z,18.59
2022-07-29T03:32:32.293Z,18.62
2022-07-29T03:33:32.293Z,18.54
2022-07-29T03:34:32.266Z,18.56
2022-07-29T03:35:32.256Z,18.59
2022-07-29T03:36:32.308Z,18.66
2022-07-29T03:37:32.220Z,18.65
2022-07-29T03:38:32.216Z,18.65
2022-07-29T03:39:32.204Z,18.56
2022-07-29T03:40:32.160Z,18.59
2022-07-29T03:41:32.138Z,18.46
2022-07-29T03:42:34.337Z,18.41
2022-07-29T03:43:32.116Z,18.42
2022-07-29T03:44:32.087Z,18.49
2022-07-29T03:45:32.066Z,18.42
2022-07-29T03:46:32.216Z,18.42
2022-07-29T03:47:49.992Z,18.42
2022-07-29T03:48:36.672Z,18.29
2022-07-29T03:49:31.998Z,18.41
2022-07-29T03:50:31.962Z,18.49
2022-07-29T03:51:33.985Z,18.51
2022-07-29T03:52:31.967Z,18.46
2022-07-29T03:53:31.923Z,18.44
2022-07-29T03:54:31.939Z,18.41
2022-07-29T03:55:32.715Z,18.34
2022-07-29T03:56:31.886Z,18.42
2022-07-29T03:57:31.943Z,18.32
2022-07-29T03:58:31.829Z,18.29
2022-07-29T03:59:31.827Z,18.25
2022-07-29T04:00:31.786Z,18.25
2022-07-29T04:01:31.798Z,18.19
2022-07-29T04:02:31.841Z,18.25
2022-07-29T04:03:31.799Z,18.17
2022-07-29T04:04:31.725Z,18.13
2022-07-29T04:05:32.660Z,17.99
2022-07-29T04:06:32.723Z,18.01
2022-07-29T04:07:31.727Z,18.02
2022-07-29T04:08:31.654Z,18.01
2022-07-29T04:09:31.627Z,17.99
2022-07-29T04:10:34.008Z,17.91
2022-07-29T04:11:31.603Z,17.81
2022-07-29T04:12:31.622Z,17.81
2022-07-29T04:13:31.559Z,17.76
2022-07-29T04:14:31.955Z,17.66
2022-07-29T04:15:32.050Z,17.54
2022-07-29T04:16:31.615Z,17.38
2022-07-29T04:17:31.545Z,17.30
2022-07-29T04:18:31.474Z,17.32
2022-07-29T04:19:31.446Z,17.27
2022-07-29T04:20:32.238Z,17.17
2022-07-29T04:21:31.419Z,17.12
2022-07-29T04:22:31.452Z,17.15
2022-07-29T04:23:31.377Z,17.07
2022-07-29T04:24:31.430Z,16.99
2022-07-29T04:25:31.349Z,16.88
2022-07-29T04:26:31.337Z,16.84
2022-07-29T04:27:31.352Z,16.85
2022-07-29T04:28:32.219Z,16.85
2022-07-29T04:29:31.266Z,16.73
2022-07-29T04:30:31.240Z,16.66
2022-07-29T04:31:31.277Z,16.55
2022-07-29T04:32:31.259Z,16.48
2022-07-29T04:33:31.271Z,16.44
2022-07-29T04:34:31.193Z,16.33
2022-07-29T04:35:31.139Z,16.44
2022-07-29T04:36:32.090Z,16.45
2022-07-29T04:37:31.160Z,16.36
2022-07-29T04:38:31.095Z,16.45
2022-07-29T04:39:31.080Z,16.37
2022-07-29T04:40:31.111Z,16.30
2022-07-29T04:41:33.129Z,16.33
2022-07-29T04:42:31.056Z,16.29
2022-07-29T04:43:31.022Z,16.27
2022-07-29T04:44:31.937Z,16.30
2022-07-29T04:45:31.982Z,16.32
2022-07-29T04:46:31.759Z,16.34
2022-07-29T04:47:30.968Z,16.44
2022-07-29T04:48:30.933Z,16.33
2022-07-29T04:49:31.783Z,16.40
2022-07-29T04:50:31.231Z,16.45
2022-07-29T04:51:30.863Z,16.42
2022-07-29T04:52:30.892Z,16.47
2022-07-29T04:53:30.806Z,16.33
2022-07-29T04:54:30.805Z,16.30
2022-07-29T04:55:31.753Z,16.36
2022-07-29T04:56:30.772Z,16.34
2022-07-29T04:57:30.765Z,16.32
2022-07-29T04:58:30.835Z,16.32
2022-07-29T04:59:30.761Z,16.27
2022-07-29T05:00:33.629Z,16.25
2022-07-29T05:01:30.740Z,16.25
2022-07-29T05:02:30.736Z,16.33
2022-07-29T05:03:30.644Z,16.27
2022-07-29T05:04:30.629Z,16.27
2022-07-29T05:05:31.367Z,16.34
2022-07-29T05:06:31.248Z,16.37
2022-07-29T05:07:31.251Z,16.34
2022-07-29T05:08:30.616Z,16.34
2022-07-29T05:09:30.533Z,16.42
2022-07-29T05:10:30.542Z,16.50
2022-07-29T05:11:30.730Z,16.52
2022-07-29T05:12:30.521Z,16.60
2022-07-29T05:13:30.467Z,16.59
2022-07-29T05:14:31.381Z,16.54
2022-07-29T05:15:30.493Z,16.41
2022-07-29T05:16:30.460Z,16.50
2022-07-29T05:17:30.408Z,16.37
2022-07-29T05:18:30.384Z,16.45
2022-07-29T05:19:30.303Z,16.37
2022-07-29T05:20:30.359Z,16.40
2022-07-29T05:21:30.573Z,16.36
2022-07-29T05:22:30.341Z,16.47
2022-07-29T05:23:31.252Z,16.51
2022-07-29T05:24:30.300Z,16.40
2022-07-29T05:25:43.471Z,16.48
2022-07-29T05:26:31.162Z,16.44
2022-07-29T05:27:30.231Z,16.48
2022-07-29T05:28:30.192Z,16.50
2022-07-29T05:29:44.730Z,16.47
2022-07-29T05:30:31.095Z,16.55
2022-07-29T05:31:30.196Z,16.59
2022-07-29T05:32:30.190Z,16.54
2022-07-29T05:33:34.867Z,16.54
2022-07-29T05:34:31.085Z,16.51
2022-07-29T05:35:30.083Z,16.47
2022-07-29T05:36:30.062Z,16.34
2022-07-29T05:37:30.035Z,16.41
2022-07-29T05:38:30.091Z,16.44
2022-07-29T05:39:48.759Z,16.29
2022-07-29T05:40:30.903Z,16.30
2022-07-29T05:41:30.752Z,16.27
2022-07-29T05:42:31.010Z,16.26
2022-07-29T05:43:30.040Z,16.23
2022-07-29T05:44:30.756Z,16.08
2022-07-29T05:45:29.905Z,16.14
2022-07-29T05:46:30.052Z,16.07
2022-07-29T05:47:29.860Z,16.11
2022-07-29T05:48:29.886Z,16.25
2022-07-29T05:49:29.876Z,16.32
2022-07-29T05:50:29.812Z,16.27
2022-07-29T05:51:30.753Z,16.29
2022-07-29T05:52:29.879Z,16.45
2022-07-29T05:53:29.764Z,16.42
2022-07-29T05:54:29.761Z,16.63
2022-07-29T05:55:29.709Z,16.57
2022-07-29T05:56:29.731Z,16.65
2022-07-29T05:57:29.796Z,16.81
2022-07-29T05:58:29.699Z,16.84
2022-07-29T05:59:30.614Z,16.91
2022-07-29T06:00:29.650Z,16.82
2022-07-29T06:01:29.842Z,16.99
2022-07-29T06:02:29.642Z,16.95
2022-07-29T06:03:29.571Z,16.98
2022-07-29T06:04:29.640Z,17.00
2022-07-29T06:05:29.542Z,17.03
2022-07-29T06:06:29.554Z,17.00
2022-07-29T06:07:29.581Z,17.05
2022-07-29T06:08:29.553Z,17.03
2022-07-29T06:09:29.483Z,17.07
2022-07-29T06:10:29.601Z,17.15
2022-07-29T06:11:30.251Z,17.15
2022-07-29T06:12:29.474Z,17.24
2022-07-29T06:13:29.396Z,17.17
2022-07-29T06:14:29.403Z,17.35
2022-07-29T06:15:29.361Z,17.40
2022-07-29T06:16:30.161Z,17.57
2022-07-29T06:17:29.337Z,17.89
2022-07-29T06:18:29.330Z,17.94
2022-07-29T06:19:29.286Z,18.04
2022-07-29T06:20:29.290Z,18.01
2022-07-29T06:21:29.250Z,17.89
2022-07-29T06:22:29.225Z,17.55
2022-07-29T06:23:29.268Z,17.36
2022-07-29T06:24:29.191Z,17.33
2022-07-29T06:25:29.175Z,17.33
2022-07-29T06:26:30.972Z,17.38
2022-07-29T06:27:29.240Z,17.40
2022-07-29T06:28:29.169Z,17.36
2022-07-29T06:29:29.563Z,17.39
2022-07-29T06:30:29.102Z,17.45
2022-07-29T06:31:29.076Z,17.36
2022-07-29T06:32:29.059Z,17.43
2022-07-29T06:33:29.092Z,17.51
2022-07-29T06:34:29.025Z,17.58
2022-07-29T06:35:39.354Z,17.74
2022-07-29T06:36:30.020Z,17.68
2022-07-29T06:37:29.480Z,17.83
2022-07-29T06:38:31.621Z,17.80
2022-07-29T06:39:29.914Z,17.81
2022-07-29T06:40:28.886Z,17.99
2022-07-29T06:41:28.894Z,17.99
2022-07-29T06:42:28.888Z,18.11
2022-07-29T06:43:28.902Z,18.31
2022-07-29T06:44:28.902Z,18.56
2022-07-29T06:45:28.820Z,19.20
2022-07-29T06:46:28.805Z,19.85
2022-07-29T06:47:28.866Z,20.37
2022-07-29T06:48:28.806Z,21.28
2022-07-29T06:49:28.813Z,22.09
2022-07-29T06:50:28.713Z,22.49
2022-07-29T06:51:28.747Z,23.04
2022-07-29T06:52:28.667Z,23.44
2022-07-29T06:53:28.763Z,23.47
2022-07-29T06:54:28.745Z,23.19
2022-07-29T06:55:28.823Z,22.85
2022-07-29T06:56:28.600Z,22.97
2022-07-29T06:57:28.609Z,23.84
2022-07-29T06:58:28.572Z,24.18
2022-07-29T06:59:35.097Z,23.92
2022-07-29T07:00:29.560Z,23.59
2022-07-29T07:01:28.528Z,23.79
2022-07-29T07:02:28.616Z,23.75
2022-07-29T07:03:28.519Z,23.04
2022-07-29T07:04:28.440Z,22.44
2022-07-29T07:05:28.446Z,21.85
2022-07-29T07:06:28.451Z,21.13
2022-07-29T07:07:28.411Z,20.75
2022-07-29T07:08:28.429Z,20.63
2022-07-29T07:09:40.461Z,20.46
2022-07-29T07:10:29.260Z,20.38
2022-07-29T07:11:28.333Z,20.26
2022-07-29T07:12:28.333Z,20.26
2022-07-29T07:13:28.363Z,20.13
2022-07-29T07:14:28.300Z,20.16
2022-07-29T07:15:39.618Z,20.12
2022-07-29T07:16:29.292Z,20.19
2022-07-29T07:17:28.326Z,20.22
2022-07-29T07:18:28.267Z,20.19
2022-07-29T07:19:28.208Z,20.30
2022-07-29T07:20:28.158Z,20.40
2022-07-29T07:21:30.277Z,20.44
2022-07-29T07:22:28.134Z,20.27
2022-07-29T07:23:29.186Z,20.46
2022-07-29T07:24:28.122Z,20.53
2022-07-29T07:25:28.100Z,20.60
2022-07-29T07:26:28.146Z,20.73
2022-07-29T07:27:28.114Z,20.73
2022-07-29T07:28:28.031Z,20.78
2022-07-29T07:29:28.064Z,21.05
2022-07-29T07:30:27.995Z,21.03
2022-07-29T07:31:28.022Z,21.16
2022-07-29T07:32:28.007Z,21.21
2022-07-29T07:33:27.959Z,21.15
2022-07-29T07:34:29.432Z,21.12
2022-07-29T07:35:27.919Z,21.09
2022-07-29T07:36:27.930Z,21.05
2022-07-29T07:37:27.859Z,21.15
2022-07-29T07:38:27.854Z,21.09
2022-07-29T07:39:27.858Z,21.08
2022-07-29T07:40:27.795Z,20.90
2022-07-29T07:41:27.806Z,20.97
2022-07-29T07:42:27.791Z,21.00
2022-07-29T07:43:27.769Z,21.05
2022-07-29T07:44:27.787Z,20.94
2022-07-29T07:45:28.157Z,20.97
2022-07-29T07:46:27.723Z,21.15
2022-07-29T07:47:27.936Z,20.97
2022-07-29T07:48:27.678Z,20.91
2022-07-29T07:49:27.796Z,20.94
2022-07-29T07:50:27.671Z,21.00
2022-07-29T07:51:27.604Z,21.05
2022-07-29T07:52:27.600Z,21.11
2022-07-29T07:53:27.472Z,21.08
2022-07-29T07:54:27.638Z,21.16
2022-07-29T07:55:27.552Z,21.06
2022-07-29T07:56:31.915Z,21.15
2022-07-29T07:57:28.519Z,21.15
2022-07-29T07:58:27.477Z,21.27
2022-07-29T07:59:27.461Z,21.36
2022-07-29T08:00:27.496Z,21.36
2022-07-29T08:01:27.476Z,21.27
2022-07-29T08:02:28.284Z,21.15
2022-07-29T08:03:28.312Z,21.12
2022-07-29T08:04:28.883Z,21.05
2022-07-29T08:05:27.377Z,21.12
2022-07-29T08:06:28.299Z,21.15
2022-07-29T08:07:27.314Z,21.12
2022-07-29T08:08:27.319Z,21.24
2022-07-29T08:09:29.778Z,21.36
2022-07-29T08:10:27.316Z,21.37
2022-07-29T08:11:27.271Z,21.28
2022-07-29T08:12:27.311Z,21.31
2022-07-29T08:13:27.233Z,21.40
2022-07-29T08:14:27.226Z,21.43
2022-07-29T08:15:27.217Z,21.55
2022-07-29T08:16:27.645Z,21.63
2022-07-29T08:17:27.163Z,21.66
2022-07-29T08:18:27.136Z,21.51
2022-07-29T08:19:27.123Z,21.82
2022-07-29T08:20:27.098Z,21.86
2022-07-29T08:21:27.191Z,21.90
2022-07-29T08:22:27.833Z,21.98
2022-07-29T08:23:29.293Z,22.09
2022-07-29T08:24:27.029Z,22.15
2022-07-29T08:25:27.009Z,22.29
2022-07-29T08:26:27.087Z,22.42
2022-07-29T08:27:43.570Z,22.54
2022-07-29T08:28:27.863Z,22.54
2022-07-29T08:29:26.944Z,22.61
2022-07-29T08:30:27.105Z,22.49
2022-07-29T08:31:27.015Z,22.57
2022-07-29T08:32:51.958Z,22.56
2022-07-29T08:33:27.759Z,22.57
2022-07-29T08:34:26.921Z,22.57
2022-07-29T08:35:26.834Z,22.51
2022-07-29T08:36:26.821Z,22.38
2022-07-29T08:37:26.863Z,22.38
2022-07-29T08:38:26.783Z,22.26
2022-07-29T08:39:26.891Z,22.44
2022-07-29T08:40:32.129Z,22.38
2022-07-29T08:41:27.762Z,22.44
2022-07-29T08:42:26.732Z,22.57
2022-07-29T08:43:26.684Z,22.56
2022-07-29T08:44:30.554Z,22.63
2022-07-29T08:45:26.704Z,22.51
2022-07-29T08:46:26.672Z,22.67
2022-07-29T08:47:26.619Z,22.74
2022-07-29T08:48:26.645Z,22.85
2022-07-29T08:49:26.621Z,22.88
2022-07-29T08:50:27.325Z,22.94
2022-07-29T08:51:26.894Z,23.03
2022-07-29T08:52:27.325Z,23.12
2022-07-29T08:53:26.519Z,23.19
2022-07-29T08:54:27.384Z,23.11
2022-07-29T08:55:26.485Z,23.25
2022-07-29T08:56:26.452Z,23.21
2022-07-29T08:57:26.465Z,23.26
2022-07-29T08:58:26.434Z,23.26
2022-07-29T08:59:26.472Z,23.37
2022-07-29T09:00:26.376Z,23.39
2022-07-29T09:01:36.417Z,23.34
2022-07-29T09:02:27.275Z,23.29
2022-07-29T09:03:26.455Z,23.34
2022-07-29T09:04:26.175Z,23.25
2022-07-29T09:05:26.848Z,23.19
2022-07-29T09:06:26.205Z,23.23
2022-07-29T09:07:26.250Z,23.26
2022-07-29T09:08:27.243Z,23.16
2022-07-29T09:09:26.195Z,23.38
2022-07-29T09:10:26.203Z,23.49
2022-07-29T09:11:26.081Z,23.42
2022-07-29T09:12:29.414Z,23.41
2022-07-29T09:13:26.170Z,23.34
2022-07-29T09:14:26.155Z,23.29
2022-07-29T09:15:26.026Z,23.23
2022-07-29T09:16:50.849Z,23.14
2022-07-29T09:17:27.005Z,23.14
2022-07-29T09:18:31.052Z,23.18
2022-07-29T09:19:26.983Z,23.18
2022-07-29T09:20:26.857Z,23.35
2022-07-29T09:21:26.135Z,23.52
2022-07-29T09:22:26.034Z,23.62
2022-07-29T09:23:25.939Z,23.59
2022-07-29T09:24:25.965Z,23.77
2022-07-29T09:25:25.956Z,23.86
2022-07-29T09:26:25.907Z,23.71
2022-07-29T09:27:26.048Z,23.71
2022-07-29T09:28:25.877Z,23.68
2022-07-29T09:29:25.837Z,23.74
2022-07-29T09:30:31.419Z,23.62
2022-07-29T09:31:26.856Z,23.56
2022-07-29T09:32:26.279Z,23.56
2022-07-29T09:33:25.756Z,23.64
2022-07-29T09:34:26.346Z,23.64
2022-07-29T09:35:25.829Z,23.59
2022-07-29T09:36:25.756Z,23.56
2022-07-29T09:37:25.697Z,23.82
2022-07-29T09:38:25.710Z,24.18
2022-07-29T09:39:26.136Z,24.24
2022-07-29T09:40:25.761Z,24.34
2022-07-29T09:41:25.646Z,24.46
2022-07-29T09:42:25.577Z,24.48
2022-07-29T09:43:25.602Z,24.36
2022-07-29T09:44:25.460Z,24.21
2022-07-29T09:45:25.478Z,24.26
2022-07-29T09:46:25.578Z,24.14
2022-07-29T09:47:26.350Z,24.12
2022-07-29T09:48:25.496Z,24.21
2022-07-29T09:49:25.610Z,24.26
2022-07-29T09:50:25.450Z,24.21
2022-07-29T09:51:37.832Z,24.18
2022-07-29T09:52:27.299Z,24.21
2022-07-29T09:53:25.396Z,24.31
2022-07-29T09:54:25.285Z,24.42
2022-07-29T09:55:25.254Z,24.51
2022-07-29T09:56:25.497Z,24.52
2022-07-29T09:57:30.041Z,24.66
2022-07-29T09:58:35.574Z,24.67
2022-07-29T09:59:25.777Z,24.77
2022-07-29T10:00:25.206Z,24.89
2022-07-29T10:01:25.256Z,25.02
2022-07-29T10:02:25.225Z,25.08
2022-07-29T10:03:25.235Z,25.12
2022-07-29T10:04:25.153Z,24.89
2022-07-29T10:05:25.084Z,25.04
2022-07-29T10:06:25.211Z,25.09
2022-07-29T10:07:25.999Z,25.02
2022-07-29T10:08:25.119Z,25.01
2022-07-29T10:09:24.994Z,24.92
2022-07-29T10:10:25.019Z,25.08
2022-07-29T10:11:24.983Z,25.08
2022-07-29T10:12:26.002Z,25.23
2022-07-29T10:13:24.928Z,25.24
2022-07-29T10:14:25.022Z,25.34
2022-07-29T10:15:24.889Z,25.44
2022-07-29T10:16:25.921Z,25.67
2022-07-29T10:17:25.183Z,25.83
2022-07-29T10:18:24.917Z,25.51
2022-07-29T10:19:25.194Z,25.42
2022-07-29T10:20:25.035Z,25.09
2022-07-29T10:21:36.224Z,25.26
2022-07-29T10:22:51.486Z,25.36
2022-07-29T10:23:25.735Z,25.57
2022-07-29T10:24:24.723Z,25.83
2022-07-29T10:25:24.722Z,25.86
2022-07-29T10:26:24.774Z,25.94
2022-07-29T10:27:24.675Z,26.01
2022-07-29T10:28:25.053Z,26.11
2022-07-29T10:29:24.636Z,26.16
2022-07-29T10:30:24.617Z,26.35
2022-07-29T10:31:24.631Z,26.46
2022-07-29T10:32:24.565Z,26.39
2022-07-29T10:33:24.565Z,26.28
2022-07-29T10:34:24.522Z,26.12
2022-07-29T10:35:24.515Z,25.93
2022-07-29T10:36:24.478Z,25.48
2022-07-29T10:37:24.623Z,25.46
2022-07-29T10:38:24.726Z,25.49
2022-07-29T10:39:24.444Z,25.72
2022-07-29T10:40:24.402Z,25.63
2022-07-29T10:41:24.397Z,25.98
2022-07-29T10:42:29.866Z,26.11
2022-07-29T10:43:25.464Z,26.46
2022-07-29T10:44:24.361Z,26.75
2022-07-29T10:45:24.328Z,26.75
2022-07-29T10:46:25.574Z,26.68
2022-07-29T10:47:24.310Z,26.84
2022-07-29T10:48:24.277Z,26.91
2022-07-29T10:49:25.185Z,27.13
2022-07-29T10:50:24.234Z,27.11
2022-07-29T10:51:24.295Z,27.28
2022-07-29T10:52:26.554Z,27.31
2022-07-29T10:53:25.492Z,27.38
2022-07-29T10:54:24.168Z,27.08
2022-07-29T10:55:24.142Z,26.91
2022-07-29T10:57:25.679Z,26.97
2022-07-29T10:58:24.073Z,26.96
2022-07-29T10:59:24.112Z,26.94
2022-07-29T11:00:24.102Z,27.02
2022-07-29T11:01:37.504Z,26.86
2022-07-29T11:02:42.425Z,26.56
2022-07-29T11:03:25.116Z,26.47
2022-07-29T11:04:23.967Z,26.44
2022-07-29T11:05:23.981Z,26.61
2022-07-29T11:06:26.871Z,26.75
2022-07-29T11:07:23.898Z,26.86
2022-07-29T11:08:26.332Z,26.91
2022-07-29T11:09:30.288Z,26.88
2022-07-29T11:10:30.961Z,27.12
2022-07-29T11:11:24.844Z,27.11
2022-07-29T11:12:24.840Z,27.12
2022-07-29T11:13:23.829Z,27.13
2022-07-29T11:14:26.509Z,27.27
2022-07-29T11:15:24.942Z,27.08
2022-07-29T11:16:25.097Z,26.87
2022-07-29T11:17:23.786Z,26.50
2022-07-29T11:18:23.721Z,26.49
2022-07-29T11:19:26.656Z,26.61
2022-07-29T11:20:24.716Z,26.68
2022-07-29T11:21:23.701Z,26.84
2022-07-29T11:22:25.580Z,26.96
2022-07-29T11:23:23.646Z,27.12
2022-07-29T11:24:28.788Z,26.90
2022-07-29T11:25:42.867Z,27.06
2022-07-29T11:26:24.612Z,27.11
2022-07-29T11:27:23.593Z,27.39
2022-07-29T11:29:24.757Z,27.38
2022-07-29T11:30:25.214Z,27.46
2022-07-29T11:31:23.527Z,27.48
2022-07-29T11:32:23.767Z,27.59
2022-07-29T11:33:54.339Z,27.59
2022-07-29T11:34:28.022Z,27.39
2022-07-29T11:35:38.545Z,27.49
2022-07-29T11:36:28.120Z,27.58
2022-07-29T11:38:24.395Z,27.28
2022-07-29T11:39:23.355Z,27.39
2022-07-29T11:40:23.359Z,27.38
2022-07-29T11:41:23.338Z,27.24
2022-07-29T11:42:32.468Z,26.98
2022-07-29T11:43:24.313Z,26.86
2022-07-29T11:44:23.298Z,26.81
2022-07-29T11:45:43.003Z,26.96
2022-07-29T11:46:25.154Z,27.21
2022-07-29T11:47:23.256Z,27.33
2022-07-29T11:48:28.820Z,27.62
2022-07-29T11:49:32.759Z,27.80
2022-07-29T11:50:26.907Z,27.76
2022-07-29T11:51:32.673Z,27.69
2022-07-29T11:52:24.140Z,27.87
2022-07-29T11:53:23.125Z,27.84
2022-07-29T11:54:27.312Z,28.01
2022-07-29T11:55:23.393Z,28.14
2022-07-29T11:56:25.617Z,28.24
2022-07-29T11:57:23.062Z,28.46
2022-07-29T11:58:25.202Z,28.62
2022-07-29T11:59:23.098Z,28.51
2022-07-29T12:00:24.062Z,28.60
2022-07-29T12:01:23.002Z,28.58
2022-07-29T12:02:36.934Z,28.45
2022-07-29T12:03:35.516Z,28.50
2022-07-29T12:04:24.002Z,28.55
2022-07-29T12:06:23.932Z,28.79
2022-07-29T12:07:03.764Z,28.60
2022-07-29T12:07:22.974Z,28.70
2022-07-29T12:08:23.860Z,28.76
2022-07-29T12:09:22.822Z,28.76
2022-07-29T12:10:30.095Z,29.00
2022-07-29T12:11:23.830Z,29.41
2022-07-29T12:12:22.778Z,29.60
2022-07-29T12:13:31.201Z,29.94
2022-07-29T12:14:23.741Z,29.94
2022-07-29T12:15:22.941Z,29.78
2022-07-29T12:16:26.005Z,29.39
2022-07-29T12:17:23.694Z,29.32
2022-07-29T12:18:24.392Z,28.91
2022-07-29T12:19:22.760Z,28.67
2022-07-29T12:20:22.625Z,28.69
2022-07-29T12:21:25.672Z,29.03
2022-07-29T12:22:22.629Z,29.02
2022-07-29T12:23:22.593Z,29.07
2022-07-29T12:24:22.799Z,29.48
2022-07-29T12:25:37.740Z,29.70
2022-07-29T12:26:25.831Z,29.95
2022-07-29T12:27:29.239Z,29.97
2022-07-29T12:28:26.523Z,29.73
2022-07-29T12:29:33.784Z,29.58
2022-07-29T12:30:23.491Z,29.37
2022-07-29T12:31:41.847Z,29.52
2022-07-29T12:32:23.523Z,29.57
2022-07-29T12:33:22.412Z,29.67
2022-07-29T12:34:22.387Z,29.58
2022-07-29T12:35:22.384Z,29.62
2022-07-29T12:36:22.374Z,29.78
2022-07-29T12:37:31.865Z,29.62
2022-07-29T12:38:23.341Z,29.64
2022-07-29T12:39:22.300Z,29.71
2022-07-29T12:40:22.285Z,29.78
2022-07-29T12:41:22.261Z,29.95
2022-07-29T12:42:22.279Z,30.19
2022-07-29T12:43:22.242Z,30.19
2022-07-29T12:44:22.221Z,30.15
2022-07-29T12:45:22.197Z,30.10
2022-07-29T12:46:22.204Z,30.01
2022-07-29T12:47:22.175Z,30.44
2022-07-29T12:48:22.175Z,30.59
2022-07-29T12:49:22.189Z,30.94
2022-07-29T12:50:26.185Z,30.98
2022-07-29T12:51:22.082Z,31.22
2022-07-29T12:52:22.066Z,31.37
2022-07-29T12:53:22.080Z,31.60
2022-07-29T12:54:22.034Z,31.67
2022-07-29T12:55:22.021Z,31.42